Time;durP1;ratioP1;P1;durP2;ratioP2;P2;SDS_P1;SDS_P2;PMS_P1;PMS_P2;Temp;Humidity;BMP_temperature;BMP_pressure;BME280_temperature;BME280_humidity;BME280_pressure;Samples;Min_cycle;Max_cycle;Signal;HPM_P1;HPM_P2
2022/03/19 00:01:51;;;;;;;;;;;5.60;99.90;;;;;;5065943;28;20070;-55
2022/03/19 00:04:17;;;;;;;17.40;6.30;;;5.60;99.90;;;;;;5067104;28;20329;-52
2022/03/19 00:06:46;;;;;;;14.25;5.90;;;5.60;99.90;;;;;;5067746;28;20454;-55
2022/03/19 00:09:12;;;;;;;13.05;5.72;;;5.60;99.90;;;;;;5067330;28;20127;-56
2022/03/19 00:11:37;;;;;;;16.67;5.53;;;5.50;99.90;;;;;;5066280;28;20235;-54
2022/03/19 00:14:04;;;;;;;14.05;6.07;;;5.50;99.90;;;;;;5067213;28;20036;-55
2022/03/19 00:16:29;;;;;;;21.15;6.88;;;5.50;99.90;;;;;;5066186;28;20097;-55
2022/03/19 00:18:55;;;;;;;12.98;5.70;;;5.50;99.90;;;;;;5065009;28;20040;-53
2022/03/19 00:21:20;;;;;;;15.95;5.93;;;5.50;99.90;;;;;;5066418;28;20020;-53
2022/03/19 00:23:46;;;;;;;20.42;6.65;;;5.50;99.90;;;;;;5066592;28;20060;-52
2022/03/19 00:26:12;;;;;;;;;;;5.50;99.90;;;;;;5065641;28;20036;-56
2022/03/19 00:28:40;;;;;;;9.48;4.78;;;5.40;99.90;;;;;;5066481;28;20538;-55
2022/03/19 00:31:05;;;;;;;12.50;5.68;;;5.40;99.90;;;;;;5066268;28;20033;-55
2022/03/19 00:33:31;;;;;;;12.35;5.57;;;5.30;99.90;;;;;;5066067;28;20681;-54
2022/03/19 00:35:57;;;;;;;13.05;6.00;;;5.30;99.90;;;;;;5065315;28;20032;-55
2022/03/19 00:38:22;;;;;;;14.88;6.85;;;5.30;99.90;;;;;;5065743;28;20027;-54
2022/03/19 00:40:49;;;;;;;13.68;5.85;;;5.20;99.90;;;;;;5065840;28;20026;-53
2022/03/19 00:43:15;;;;;;;18.05;6.45;;;5.20;99.90;;;;;;5065977;28;20089;-54
2022/03/19 00:45:41;;;;;;;;;;;5.10;99.90;;;;;;5065809;28;20024;-55
2022/03/19 00:48:07;;;;;;;17.27;5.47;;;5.10;99.90;;;;;;5067047;28;19908;-55
2022/03/19 00:50:32;;;;;;;12.60;6.50;;;5.10;99.90;;;;;;5064687;28;20461;-56
2022/03/19 00:52:58;;;;;;;17.55;6.32;;;5.00;99.90;;;;;;5066667;28;20493;-56
2022/03/19 00:55:23;;;;;;;18.35;5.93;;;5.00;99.90;;;;;;5065424;28;20048;-55
2022/03/19 00:57:49;;;;;;;;;;;5.00;99.90;;;;;;5066848;28;20395;-56
2022/03/19 01:00:19;;;;;;;14.63;7.00;;;5.00;99.90;;;;;;5063924;28;20289;-56
2022/03/19 01:02:45;;;;;;;11.52;6.15;;;4.90;99.90;;;;;;5062484;28;20025;-56
2022/03/19 01:05:11;;;;;;;21.77;6.30;;;4.90;99.90;;;;;;5062919;28;20471;-55
2022/03/19 01:07:47;;;;;;;14.00;6.32;;;4.90;99.90;;;;;;5051834;28;20062;-56
2022/03/19 01:10:15;;;;;;;14.07;5.60;;;4.80;99.90;;;;;;5056044;28;20489;-55
2022/03/19 01:12:41;;;;;;;11.32;5.63;;;4.80;99.90;;;;;;5057165;28;20051;-57
2022/03/19 01:15:08;;;;;;;;;;;4.80;99.90;;;;;;5055673;28;20035;-54
2022/03/19 01:17:34;;;;;;;14.30;5.75;;;4.70;99.90;;;;;;5065459;28;19920;-55
2022/03/19 01:20:01;;;;;;;22.70;7.35;;;4.70;99.90;;;;;;5066831;28;20070;-56
2022/03/19 01:22:28;;;;;;;20.33;6.18;;;4.70;99.90;;;;;;5064546;28;20143;-55
2022/03/19 01:24:54;;;;;;;15.98;6.80;;;4.60;99.90;;;;;;5066764;28;20056;-56
2022/03/19 01:27:20;;;;;;;;;;;4.60;99.90;;;;;;5066860;28;20036;-55
2022/03/19 01:29:45;;;;;;;11.18;5.60;;;4.60;99.90;;;;;;5067493;28;20288;-55
2022/03/19 01:32:11;;;;;;;17.25;6.38;;;4.50;99.90;;;;;;5056570;28;20028;-56
2022/03/19 01:34:37;;;;;;;;;;;4.50;99.90;;;;;;5053637;28;20043;-57
2022/03/19 01:37:03;;;;;;;11.90;5.22;;;4.40;99.90;;;;;;5049234;28;19923;-56
2022/03/19 01:39:28;;;;;;;17.25;6.72;;;4.40;99.90;;;;;;5050782;28;20030;-55
2022/03/19 01:41:54;;;;;;;14.45;5.70;;;4.40;99.90;;;;;;5053344;28;20682;-56
2022/03/19 01:44:21;;;;;;;16.10;6.25;;;4.40;99.90;;;;;;5054964;28;20028;-56
2022/03/19 01:47:13;;;;;;;18.00;6.50;;;4.30;99.90;;;;;;5055582;28;20035;-55
2022/03/19 01:49:38;;;;;;;15.85;6.63;;;4.30;99.90;;;;;;5051554;28;20151;-57
2022/03/19 01:52:05;;;;;;;14.32;5.85;;;4.30;99.90;;;;;;5056905;28;20084;-57
2022/03/19 01:54:35;;;;;;;;;;;4.30;99.90;;;;;;5066151;28;20056;-56
2022/03/19 01:57:01;;;;;;;15.48;5.97;;;4.20;99.90;;;;;;5060412;28;19912;-56
2022/03/19 01:59:30;;;;;;;;;;;4.20;99.90;;;;;;5048618;28;20144;-57
2022/03/19 02:01:56;;;;;;;12.27;5.63;;;4.20;99.90;;;;;;5055172;28;20285;-53
2022/03/19 02:04:22;;;;;;;22.27;7.05;;;4.20;99.90;;;;;;5058471;28;20113;-55
2022/03/19 02:06:48;;;;;;;13.52;6.57;;;4.10;99.90;;;;;;5054180;28;20024;-55
2022/03/19 02:09:14;;;;;;;14.55;6.25;;;4.10;99.90;;;;;;5045534;28;20040;-56
2022/03/19 02:11:39;;;;;;;;;;;4.10;99.90;;;;;;5053432;28;20413;-55
2022/03/19 02:14:05;;;;;;;16.63;6.88;;;4.10;99.90;;;;;;5048785;28;19916;-55
2022/03/19 02:16:30;;;;;;;33.33;7.07;;;4.00;99.90;;;;;;5055460;28;20028;-55
2022/03/19 02:18:57;;;;;;;13.95;5.95;;;4.00;99.90;;;;;;5050735;28;20062;-54
2022/03/19 02:21:23;;;;;;;23.00;7.65;;;4.00;99.90;;;;;;5055100;28;20056;-54
2022/03/19 02:26:45;;;;;;;18.90;6.10;;;3.90;99.90;;;;;;5059356;28;20189;-55
2022/03/19 02:29:11;;;;;;;13.50;7.78;;;3.90;99.90;;;;;;5040281;28;20063;-54
2022/03/19 02:31:41;;;;;;;11.75;5.30;;;3.90;99.90;;;;;;5043830;28;20108;-54
2022/03/19 02:34:10;;;;;;;22.77;6.03;;;3.90;99.90;;;;;;5041103;28;20036;-55
2022/03/19 02:36:37;;;;;;;18.58;7.22;;;3.80;99.90;;;;;;5045782;28;20028;-56
2022/03/19 02:39:16;;;;;;;16.73;5.93;;;3.80;99.90;;;;;;5042272;28;21209;-55
2022/03/19 02:41:44;;;;;;;15.40;7.80;;;3.80;99.90;;;;;;5056273;28;20380;-53
2022/03/19 02:44:11;;;;;;;23.45;7.43;;;3.80;99.90;;;;;;5041839;28;20017;-54
2022/03/19 02:46:47;;;;;;;23.08;8.23;;;3.70;99.90;;;;;;5049591;28;20025;-52
2022/03/19 02:49:13;;;;;;;15.05;6.38;;;3.70;99.90;;;;;;5040675;28;20032;-53
2022/03/19 02:51:41;;;;;;;17.52;6.80;;;3.70;99.90;;;;;;5043690;28;20060;-53
2022/03/19 02:54:10;;;;;;;18.55;8.75;;;3.70;99.90;;;;;;5045385;28;20459;-55
2022/03/19 02:56:38;;;;;;;21.85;6.57;;;3.70;99.90;;;;;;5057553;28;20032;-56
2022/03/19 02:59:19;;;;;;;19.30;7.47;;;3.60;99.90;;;;;;5046811;28;20551;-54
2022/03/19 03:01:46;;;;;;;14.10;6.65;;;3.60;99.90;;;;;;5053702;28;20033;-55
2022/03/19 03:04:12;;;;;;;19.58;8.40;;;3.50;99.90;;;;;;5047751;28;20058;-55
2022/03/19 03:06:41;;;;;;;21.45;7.63;;;3.50;99.90;;;;;;5052959;28;20111;-54
2022/03/19 03:09:07;;;;;;;14.52;6.72;;;3.50;99.90;;;;;;5049040;28;20048;-56
2022/03/19 03:11:34;;;;;;;21.02;8.32;;;3.50;99.90;;;;;;5047541;28;20032;-55
2022/03/19 03:14:00;;;;;;;15.43;7.20;;;3.50;99.90;;;;;;5052643;28;20024;-55
2022/03/19 03:16:29;;;;;;;40.00;7.78;;;3.40;99.90;;;;;;5047717;28;20024;-53
2022/03/19 03:19:05;;;;;;;20.55;7.13;;;3.40;99.90;;;;;;5052795;28;20036;-55
2022/03/19 03:21:35;;;;;;;26.90;6.85;;;3.40;99.90;;;;;;5045073;28;20665;-55
2022/03/19 03:24:01;;;;;;;23.80;7.00;;;3.40;99.90;;;;;;5061089;28;20115;-57
2022/03/19 03:26:29;;;;;;;15.75;6.68;;;3.30;99.90;;;;;;5056240;28;20028;-56
2022/03/19 03:28:54;;;;;;;29.02;8.55;;;3.30;99.90;;;;;;5051133;28;20039;-56
2022/03/19 03:31:20;;;;;;;27.08;7.93;;;3.30;99.90;;;;;;5043162;28;20040;-56
2022/03/19 03:33:46;;;;;;;22.23;9.32;;;3.30;99.90;;;;;;5049786;28;20401;-56
2022/03/19 03:36:12;;;;;;;19.00;9.98;;;3.30;99.90;;;;;;5046332;28;20024;-55
2022/03/19 03:38:37;;;;;;;19.42;7.68;;;3.20;99.90;;;;;;5048453;28;20032;-54
2022/03/19 03:41:03;;;;;;;20.10;8.20;;;3.20;99.90;;;;;;5046813;28;20489;-53
2022/03/19 03:43:29;;;;;;;22.60;9.15;;;3.20;99.90;;;;;;5047348;28;20025;-55
2022/03/19 03:45:54;;;;;;;17.05;8.75;;;3.10;99.90;;;;;;5050290;28;20099;-55
2022/03/19 03:48:20;;;;;;;20.95;7.40;;;3.10;99.90;;;;;;5042413;28;20037;-54
2022/03/19 03:50:49;;;;;;;24.20;8.88;;;3.10;99.90;;;;;;5048244;28;20066;-54
2022/03/19 03:53:16;;;;;;;19.42;7.43;;;3.10;99.90;;;;;;5047375;28;20032;-54
2022/03/19 03:55:41;;;;;;;16.40;7.70;;;3.10;99.90;;;;;;5052836;28;20123;-53
2022/03/19 03:58:08;;;;;;;27.98;8.02;;;3.10;99.90;;;;;;5042410;28;20028;-53
2022/03/19 04:00:34;;;;;;;17.60;8.77;;;3.10;99.90;;;;;;5059967;28;20554;-51
2022/03/19 04:03:00;;;;;;;;;;;3.00;99.90;;;;;;5065148;28;20051;-53
2022/03/19 04:05:26;;;;;;;19.40;7.63;;;3.00;99.90;;;;;;5064171;28;20326;-51
2022/03/19 04:07:52;;;;;;;;;;;3.00;99.90;;;;;;5066682;28;20081;-53
2022/03/19 04:10:18;;;;;;;24.77;9.48;;;3.00;99.90;;;;;;5066523;28;19913;-55
2022/03/19 04:12:44;;;;;;;14.13;7.32;;;3.00;99.90;;;;;;5066443;28;20035;-53
2022/03/19 04:15:10;;;;;;;20.92;6.93;;;2.90;99.90;;;;;;5064917;28;20036;-51
2022/03/19 04:17:35;;;;;;;;;;;2.90;99.90;;;;;;5066933;28;20036;-54
2022/03/19 04:20:03;;;;;;;17.08;6.82;;;2.90;99.90;;;;;;5065332;28;19931;-52
2022/03/19 04:22:43;;;;;;;27.10;13.43;;;2.80;99.90;;;;;;5065357;28;20085;-54
2022/03/19 04:25:11;;;;;;;21.42;9.00;;;2.80;99.90;;;;;;5065913;28;20020;-54
2022/03/19 04:27:38;;;;;;;18.38;7.25;;;2.80;99.90;;;;;;5067977;28;20032;-51
2022/03/19 04:30:04;;;;;;;16.58;7.88;;;2.80;99.90;;;;;;5065356;28;20029;-55
2022/03/19 04:32:30;;;;;;;21.58;7.53;;;2.70;99.90;;;;;;5065829;28;20039;-56
2022/03/19 04:34:56;;;;;;;24.48;9.32;;;2.70;99.90;;;;;;5064692;28;20020;-54
2022/03/19 04:37:21;;;;;;;24.92;7.80;;;2.70;99.90;;;;;;5065999;28;20036;-56
2022/03/19 04:39:46;;;;;;;31.15;8.85;;;2.70;99.90;;;;;;5063919;28;20069;-52
2022/03/19 04:42:12;;;;;;;;;;;2.70;99.90;;;;;;5064904;28;20393;-52
2022/03/19 04:44:37;;;;;;;19.67;7.60;;;2.70;99.90;;;;;;5064351;28;19916;-56
2022/03/19 04:47:03;;;;;;;19.30;7.45;;;2.70;99.90;;;;;;5061717;28;20040;-51
2022/03/19 04:49:29;;;;;;;23.48;7.85;;;2.70;99.90;;;;;;5064780;28;20028;-54
2022/03/19 04:51:55;;;;;;;22.13;7.95;;;2.60;99.90;;;;;;5064720;28;20037;-54
2022/03/19 04:54:21;;;;;;;19.73;9.18;;;2.60;99.90;;;;;;5064693;28;20028;-54
2022/03/19 04:56:47;;;;;;;27.55;10.80;;;2.60;99.90;;;;;;5064145;28;20036;-52
2022/03/19 04:59:14;;;;;;;27.85;10.45;;;2.60;99.90;;;;;;5064106;28;20521;-55
2022/03/19 05:01:39;;;;;;;17.42;7.75;;;2.60;99.90;;;;;;5062089;28;20660;-53
2022/03/19 05:04:06;;;;;;;21.92;7.75;;;2.50;99.90;;;;;;5064936;28;20028;-51
2022/03/19 05:06:32;;;;;;;19.90;7.93;;;2.50;99.90;;;;;;5066441;28;20025;-54
2022/03/19 05:11:42;;;;;;;16.70;6.30;;;2.50;99.90;;;;;;5064374;28;19919;-52
2022/03/19 05:14:10;;;;;;;;;;;2.40;99.90;;;;;;5066035;28;20020;-55
2022/03/19 05:16:36;;;;;;;19.58;8.50;;;2.40;99.90;;;;;;5063720;28;19935;-53
2022/03/19 05:19:02;;;;;;;21.75;9.43;;;2.40;99.90;;;;;;5066254;28;20032;-54
2022/03/19 05:21:28;;;;;;;21.08;8.32;;;2.40;99.90;;;;;;5063585;28;20036;-54
2022/03/19 05:23:54;;;;;;;15.52;7.15;;;2.40;99.90;;;;;;5066936;28;20086;-53
2022/03/19 05:26:20;;;;;;;21.55;8.63;;;2.40;99.90;;;;;;5073173;22;20050;-57
2022/03/19 05:28:46;;;;;;;;;;;2.40;99.90;;;;;;4992442;28;20058;-52
2022/03/19 05:31:12;;;;;;;18.73;7.38;;;2.40;99.90;;;;;;4992931;28;19945;-56
2022/03/19 05:36:24;;;;;;;21.45;7.10;;;2.40;99.90;;;;;;4993867;28;20040;-57
2022/03/19 05:38:50;;;;;;;25.88;8.85;;;2.40;99.90;;;;;;4997318;28;20034;-57
2022/03/19 05:41:16;;;;;;;22.90;7.72;;;2.40;99.90;;;;;;4993586;28;20038;-57
2022/03/19 05:43:43;;;;;;;21.98;7.88;;;2.40;99.90;;;;;;4993440;28;20042;-58
2022/03/19 05:46:08;;;;;;;27.73;8.55;;;2.40;99.90;;;;;;4990039;28;20027;-55
2022/03/19 05:48:34;;;;;;;16.33;6.97;;;2.40;99.90;;;;;;4990640;28;20097;-57
2022/03/19 05:51:01;;;;;;;24.00;9.15;;;2.40;99.90;;;;;;4994778;28;20513;-55
2022/03/19 05:53:27;;;;;;;19.48;7.30;;;2.40;99.90;;;;;;4995950;28;20258;-57
2022/03/19 05:55:52;;;;;;;17.45;7.20;;;2.40;99.90;;;;;;4994793;28;20280;-58
2022/03/19 05:58:18;;;;;;;17.88;8.10;;;2.40;99.90;;;;;;4994435;28;20034;-56
2022/03/19 06:00:43;;;;;;;24.73;8.65;;;2.40;99.90;;;;;;4996374;28;20170;-55
2022/03/19 06:03:09;;;;;;;22.63;7.72;;;2.40;99.90;;;;;;4996811;28;20120;-57
2022/03/19 06:05:34;;;;;;;;;;;2.40;99.90;;;;;;4991521;28;20030;-56
2022/03/19 06:08:01;;;;;;;20.17;6.95;;;2.40;99.90;;;;;;4998732;28;19991;-55
2022/03/19 06:10:27;;;;;;;25.38;8.98;;;2.40;99.90;;;;;;5000545;28;20037;-55
2022/03/19 06:12:52;;;;;;;14.00;6.50;;;2.40;99.90;;;;;;4996301;28;20367;-56
2022/03/19 06:15:18;;;;;;;22.20;7.18;;;2.50;99.90;;;;;;4996816;28;20119;-52
2022/03/19 06:17:43;;;;;;;18.48;8.02;;;2.50;99.90;;;;;;4989522;28;20037;-55
2022/03/19 06:20:09;;;;;;;26.85;8.45;;;2.50;99.90;;;;;;4992560;28;20045;-54
2022/03/19 06:22:39;;;;;;;17.25;7.15;;;2.40;99.90;;;;;;4991149;28;20085;-53
2022/03/19 06:25:05;;;;;;;24.40;7.85;;;2.50;99.90;;;;;;4992034;28;20023;-53
2022/03/19 06:27:31;;;;;;;22.08;7.13;;;2.50;99.90;;;;;;4990481;28;20041;-53
2022/03/19 06:29:56;;;;;;;21.67;6.90;;;2.50;99.90;;;;;;4997245;28;20511;-55
2022/03/19 06:32:22;;;;;;;23.40;8.63;;;2.50;99.90;;;;;;4991892;28;20037;-55
2022/03/19 06:34:48;;;;;;;25.13;8.88;;;2.50;99.90;;;;;;4998011;28;20146;-56
2022/03/19 06:37:19;;;;;;;;;;;2.50;99.90;;;;;;4997843;28;20018;-55
2022/03/19 06:39:46;;;;;;;20.15;7.40;;;2.60;99.90;;;;;;4994527;28;20398;-55
2022/03/19 06:42:11;;;;;;;27.27;8.32;;;2.60;99.90;;;;;;4999581;28;20498;-55
2022/03/19 06:44:38;;;;;;;21.33;6.97;;;2.60;99.90;;;;;;4997649;28;20030;-55
2022/03/19 06:47:05;;;;;;;18.92;7.68;;;2.70;99.90;;;;;;4996727;28;20034;-56
2022/03/19 06:49:31;;;;;;;20.42;6.93;;;2.70;99.90;;;;;;4996669;28;20395;-55
2022/03/19 06:51:56;;;;;;;22.70;7.97;;;2.80;99.90;;;;;;4993942;28;20037;-57
2022/03/19 06:54:22;;;;;;;20.23;7.68;;;2.80;99.90;;;;;;4992858;28;20038;-56
2022/03/19 06:56:47;;;;;;;20.75;8.15;;;2.80;99.90;;;;;;4993923;28;20034;-56
2022/03/19 06:59:13;;;;;;;18.77;10.10;;;2.90;99.90;;;;;;4995504;28;20073;-55
2022/03/19 07:01:39;;;;;;;16.90;7.97;;;2.90;99.90;;;;;;4994763;28;20516;-52
2022/03/19 07:04:05;;;;;;;15.52;7.60;;;3.00;99.90;;;;;;4994671;28;20510;-52
2022/03/19 07:06:31;;;;;;;25.33;6.97;;;2.90;99.90;;;;;;4997389;28;20109;-57
2022/03/19 07:08:56;;;;;;;21.73;7.80;;;2.90;99.90;;;;;;4991591;28;20037;-53
2022/03/19 07:11:22;;;;;;;26.38;8.60;;;3.10;99.90;;;;;;4994095;28;20406;-54
2022/03/19 07:13:48;;;;;;;17.83;6.43;;;3.20;99.90;;;;;;4993121;28;20418;-55
2022/03/19 07:16:15;;;;;;;25.67;7.07;;;3.20;99.90;;;;;;4991522;28;20041;-52
2022/03/19 07:18:42;;;;;;;16.90;7.25;;;3.20;99.90;;;;;;4990318;28;20046;-52
2022/03/19 07:21:08;;;;;;;15.65;6.10;;;3.30;99.90;;;;;;4997709;28;20033;-56
2022/03/19 07:23:33;;;;;;;17.25;5.80;;;3.30;99.90;;;;;;4998591;28;20025;-56
2022/03/19 07:25:59;;;;;;;16.75;5.88;;;3.40;99.90;;;;;;4993557;28;20030;-53
2022/03/19 07:28:25;;;;;;;14.75;7.45;;;3.40;99.90;;;;;;4995622;28;20029;-53
2022/03/19 07:30:51;;;;;;;17.02;5.03;;;3.50;99.90;;;;;;4998041;28;20039;-51
2022/03/19 07:33:16;;;;;;;10.88;5.50;;;3.60;99.90;;;;;;4999566;28;20034;-54
2022/03/19 07:35:43;;;;;;;15.88;5.63;;;3.60;99.90;;;;;;4997111;28;20046;-54
2022/03/19 07:38:10;;;;;;;;;;;3.70;99.90;;;;;;4998548;28;20134;-53
2022/03/19 07:43:21;;;;;;;17.63;6.55;;;3.90;99.90;;;;;;4996822;28;20107;-55
2022/03/19 07:45:47;;;;;;;15.45;5.05;;;4.00;99.90;;;;;;4996611;28;20026;-55
2022/03/19 07:48:13;;;;;;;;;;;4.10;99.90;;;;;;4996135;28;20061;-55
2022/03/19 07:50:39;;;;;;;15.98;5.07;;;4.20;99.90;;;;;;4990974;28;19913;-51
2022/03/19 07:53:06;;;;;;;11.93;4.45;;;4.30;99.90;;;;;;4993205;28;20029;-52
2022/03/19 07:55:33;;;;;;;17.90;4.82;;;4.30;99.90;;;;;;4994121;28;20057;-53
2022/03/19 07:57:58;;;;;;;22.65;6.13;;;4.40;99.90;;;;;;4992845;28;20034;-55
2022/03/19 08:00:24;;;;;;;13.73;4.13;;;4.40;99.90;;;;;;4991853;28;20030;-53
2022/03/19 08:02:51;;;;;;;18.50;4.13;;;4.50;99.90;;;;;;4993368;28;20087;-52
2022/03/19 08:05:16;;;;;;;17.13;6.95;;;4.60;99.90;;;;;;4997768;28;20030;-50
2022/03/19 08:07:42;;;;;;;9.45;5.55;;;4.60;99.90;;;;;;4991988;28;20042;-55
2022/03/19 08:10:09;;;;;;;9.30;3.63;;;4.70;99.90;;;;;;4996434;28;20042;-54
2022/03/19 08:12:40;;;;;;;6.88;2.75;;;4.80;99.90;;;;;;4993699;28;20042;-54
2022/03/19 08:15:07;;;;;;;15.52;2.05;;;4.90;99.90;;;;;;4997107;28;20083;-55
2022/03/19 08:17:35;;;;;;;12.05;3.33;;;5.00;99.90;;;;;;4991081;28;20034;-56
2022/03/19 08:20:01;;;;;;;16.88;5.80;;;5.00;99.90;;;;;;4998285;28;20037;-54
2022/03/19 08:22:27;;;;;;;9.80;4.00;;;5.00;99.90;;;;;;4993170;28;20026;-56
2022/03/19 08:24:53;;;;;;;11.68;4.85;;;5.20;99.90;;;;;;4991079;28;20030;-56
2022/03/19 08:27:19;;;;;;;19.88;4.68;;;5.40;99.90;;;;;;4990564;28;20034;-55
2022/03/19 08:29:45;;;;;;;13.07;2.63;;;5.60;99.90;;;;;;4988819;28;20038;-55
2022/03/19 08:32:11;;;;;;;22.08;3.83;;;5.70;99.90;;;;;;4995857;28;20031;-57
2022/03/19 08:34:37;;;;;;;14.10;2.55;;;5.60;99.90;;;;;;4990933;28;20030;-53
2022/03/19 08:37:04;;;;;;;19.33;5.75;;;5.50;99.90;;;;;;4992423;28;20104;-55
2022/03/19 08:42:13;;;;;;;11.30;4.50;;;5.60;99.90;;;;;;4989548;28;20033;-56
2022/03/19 08:44:39;;;;;;;14.70;3.47;;;5.70;99.90;;;;;;4989110;28;20496;-60
2022/03/19 08:47:05;;;;;;;8.50;2.38;;;5.70;99.90;;;;;;4991174;28;20125;-57
2022/03/19 08:49:30;;;;;;;8.80;3.40;;;5.80;99.90;;;;;;4993852;28;20121;-53
2022/03/19 08:51:56;;;;;;;10.68;2.85;;;5.90;99.90;;;;;;5000179;28;20065;-54
2022/03/19 08:54:22;;;;;;;8.93;3.03;;;6.20;99.90;;;;;;4997350;28;20061;-58
2022/03/19 08:56:50;;;;;;;20.48;6.60;;;6.30;99.90;;;;;;4993273;28;20034;-57
2022/03/19 08:59:22;;;;;;;13.05;4.35;;;6.20;99.90;;;;;;4995423;28;20058;-58
2022/03/19 09:01:50;;;;;;;9.65;2.65;;;6.30;99.90;;;;;;4990907;28;20050;-56
2022/03/19 09:04:16;;;;;;;19.00;2.63;;;6.30;99.90;;;;;;4993690;28;20018;-58
2022/03/19 09:06:42;;;;;;;6.00;2.70;;;6.40;99.90;;;;;;4991218;28;20401;-60
2022/03/19 09:09:09;;;;;;;15.10;2.67;;;6.40;99.90;;;;;;4993909;28;20034;-59
2022/03/19 09:11:35;;;;;;;8.98;2.53;;;6.50;99.90;;;;;;4997011;28;20042;-57
2022/03/19 09:14:03;;;;;;;8.32;2.45;;;6.50;99.90;;;;;;4998010;28;20026;-58
2022/03/19 09:16:29;;;;;;;10.57;2.90;;;6.60;99.90;;;;;;4993525;28;20033;-58
2022/03/19 09:18:54;;;;;;;9.30;2.80;;;6.70;99.90;;;;;;4996987;28;20119;-57
2022/03/19 09:21:20;;;;;;;6.30;2.20;;;6.80;99.90;;;;;;4994741;28;20467;-59
2022/03/19 09:23:47;;;;;;;13.52;2.17;;;6.90;99.90;;;;;;4991212;28;20026;-58
2022/03/19 09:26:13;;;;;;;8.43;2.53;;;7.00;99.90;;;;;;5001343;28;20132;-59
2022/03/19 09:28:39;;;;;;;8.80;2.53;;;7.00;99.90;;;;;;4993699;28;20037;-58
2022/03/19 09:31:05;;;;;;;12.85;3.38;;;7.10;99.90;;;;;;4993474;28;20042;-57
2022/03/19 09:33:30;;;;;;;7.82;2.40;;;7.10;99.70;;;;;;4991371;28;20094;-57
2022/03/19 09:35:57;;;;;;;7.47;3.65;;;7.20;99.40;;;;;;4991956;28;20065;-57
2022/03/19 09:38:23;;;;;;;22.77;4.88;;;7.40;99.40;;;;;;4994886;28;20030;-59
2022/03/19 09:40:50;;;;;;;6.00;1.98;;;7.60;99.50;;;;;;4994943;28;20057;-59
2022/03/19 09:43:15;;;;;;;7.05;2.60;;;7.80;98.10;;;;;;4996241;28;20021;-54
2022/03/19 09:45:41;;;;;;;10.25;4.32;;;7.80;97.30;;;;;;4995766;28;20121;-58
2022/03/19 09:48:07;;;;;;;13.43;5.40;;;7.90;98.00;;;;;;4999020;28;20033;-59
2022/03/19 09:50:34;;;;;;;18.52;7.00;;;8.00;97.90;;;;;;4996274;28;20034;-58
2022/03/19 09:53:03;;;;;;;12.52;3.10;;;8.10;97.60;;;;;;4989346;28;20044;-55
2022/03/19 09:55:29;;;;;;;14.13;5.53;;;8.10;97.70;;;;;;4992865;28;20034;-56
2022/03/19 09:57:56;;;;;;;34.28;12.25;;;8.10;97.80;;;;;;4993495;28;20037;-56
2022/03/19 10:00:22;;;;;;;15.15;6.32;;;8.20;97.90;;;;;;4992749;28;20030;-56
2022/03/19 10:03:00;;;;;;;9.85;4.93;;;8.20;98.00;;;;;;4994035;28;20025;-57
2022/03/19 10:10:59;;;;;;;6.22;2.08;;;8.40;96.70;;;;;;4990223;28;20041;-58
2022/03/19 10:13:26;;;;;;;8.38;1.90;;;8.40;95.70;;;;;;4995883;28;20479;-57
2022/03/19 10:15:52;;;;;;;5.43;2.38;;;8.30;96.30;;;;;;4994561;28;20049;-56
2022/03/19 10:18:17;;;;;;;;;;;8.40;96.90;;;;;;4995651;28;20026;-57
2022/03/19 10:20:43;;;;;;;5.15;2.50;;;8.40;96.90;;;;;;4994741;28;19915;-58
2022/03/19 10:23:09;;;;;;;;;;;8.60;97.00;;;;;;4998292;28;20491;-57
2022/03/19 10:25:35;;;;;;;4.22;1.60;;;8.60;96.00;;;;;;4994457;28;19916;-57
2022/03/19 10:28:03;;;;;;;5.32;1.73;;;8.70;96.50;;;;;;4996859;28;20040;-57
2022/03/19 10:30:40;;;;;;;6.97;2.15;;;8.80;95.50;;;;;;4997994;28;20472;-57
2022/03/19 10:33:10;;;;;;;12.85;2.70;;;8.80;95.70;;;;;;4996486;28;20489;-58
2022/03/19 10:35:39;;;;;;;5.72;2.00;;;8.90;95.50;;;;;;4996728;28;20818;-56
2022/03/19 10:38:23;;;;;;;5.85;1.85;;;9.10;94.00;;;;;;4995288;28;20048;-56
2022/03/19 10:40:51;;;;;;;6.30;1.20;;;9.10;93.60;;;;;;4997033;28;20034;-57
2022/03/19 10:43:19;;;;;;;7.88;1.50;;;9.10;92.70;;;;;;4989944;28;20022;-57
2022/03/19 10:45:50;;;;;;;5.93;2.25;;;9.10;93.50;;;;;;4991797;28;20026;-59
2022/03/19 10:48:23;;;;;;;11.65;2.35;;;9.20;92.10;;;;;;4990002;28;20038;-57
2022/03/19 10:50:50;;;;;;;7.90;4.28;;;9.20;92.20;;;;;;4991670;28;20049;-59
2022/03/19 10:53:17;;;;;;;15.23;2.35;;;9.30;92.50;;;;;;4990516;28;20042;-57
2022/03/19 10:55:43;;;;;;;12.23;4.35;;;9.40;92.30;;;;;;4990385;28;20042;-58
2022/03/19 10:58:09;;;;;;;;;;;9.50;92.30;;;;;;4988826;28;20037;-58
2022/03/19 11:00:35;;;;;;;6.30;1.13;;;9.50;90.70;;;;;;4987524;28;19921;-58
2022/03/19 11:03:11;;;;;;;18.77;9.25;;;9.50;90.80;;;;;;4997812;28;20903;-58
2022/03/19 11:05:38;;;;;;;70.53;32.03;;;9.50;91.10;;;;;;4994346;28;20495;-58
2022/03/19 11:08:07;;;;;;;17.45;6.88;;;9.60;91.80;;;;;;4988207;28;20034;-59
2022/03/19 11:10:36;;;;;;;29.50;14.18;;;9.70;91.50;;;;;;4988389;28;20034;-58
2022/03/19 11:13:03;;;;;;;8.60;2.42;;;9.90;92.80;;;;;;4987177;28;20034;-57
2022/03/19 11:15:33;;;;;;;8.40;2.40;;;10.00;89.70;;;;;;4988050;28;20037;-57
2022/03/19 11:18:03;;;;;;;6.28;1.42;;;9.90;89.60;;;;;;4988205;28;20084;-56
2022/03/19 11:20:30;;;;;;;7.70;3.70;;;9.90;90.30;;;;;;4992510;28;20101;-54
2022/03/19 11:22:57;;;;;;;16.33;7.15;;;10.10;89.90;;;;;;4993187;28;20276;-57
2022/03/19 11:25:26;;;;;;;27.52;15.15;;;10.10;88.00;;;;;;4989950;28;20186;-57
2022/03/19 11:28:12;;;;;;;10.63;3.67;;;10.10;88.60;;;;;;5039989;23;20399;-53
2022/03/19 11:30:58;;;;;;;5.40;2.90;;;10.10;86.20;;;;;;5035022;28;20017;-53
2022/03/19 11:33:24;;;;;;;24.75;11.60;;;10.10;86.00;;;;;;5033936;28;20321;-49
2022/03/19 11:35:59;;;;;;;11.93;5.60;;;10.10;85.10;;;;;;5034293;28;20022;-48
2022/03/19 11:38:25;;;;;;;12.07;3.33;;;10.10;83.20;;;;;;5028972;28;20112;-51
2022/03/19 11:40:56;;;;;;;14.63;6.93;;;10.10;82.80;;;;;;5033903;28;20148;-48
2022/03/19 11:43:24;;;;;;;8.35;2.55;;;10.10;83.00;;;;;;5030330;28;20059;-47
2022/03/19 11:45:54;;;;;;;8.48;1.75;;;10.10;85.30;;;;;;5035355;28;20036;-60
2022/03/19 11:48:35;;;;;;;7.43;1.48;;;10.20;85.50;;;;;;5030358;28;20033;-48
2022/03/19 11:51:19;;;;;;;4.05;2.40;;;10.20;84.40;;;;;;5035254;28;20033;-51
2022/03/19 11:54:03;;;;;;;7.18;1.70;;;10.30;83.30;;;;;;5033054;28;20029;-51
2022/03/19 11:56:41;;;;;;;37.17;17.58;;;10.40;83.00;;;;;;5031763;28;20041;-50
2022/03/19 11:59:15;;;;;;;28.20;17.35;;;10.50;83.30;;;;;;5037378;28;20033;-49
2022/03/19 12:01:58;;;;;;;27.67;15.20;;;10.60;83.10;;;;;;5030089;28;20078;-52
2022/03/19 12:04:24;;;;;;;8.25;3.65;;;10.70;80.60;;;;;;5034951;28;20026;-56
2022/03/19 12:06:55;;;;;;;12.57;3.45;;;10.60;81.60;;;;;;5032364;28;20022;-55
2022/03/19 12:09:39;;;;;;;26.05;12.43;;;10.40;82.90;;;;;;5032087;28;20379;-50
2022/03/19 12:12:14;;;;;;;21.52;8.40;;;10.40;83.90;;;;;;5030781;28;20170;-52
2022/03/19 12:14:42;;;;;;;17.65;9.88;;;10.50;78.80;;;;;;5038837;28;20033;-53
2022/03/19 12:17:17;;;;;;;28.27;8.85;;;10.70;78.60;;;;;;5033821;28;20049;-51
2022/03/19 12:20:02;;;;;;;9.70;3.92;;;10.80;77.60;;;;;;5032119;28;20057;-54
2022/03/19 12:22:29;;;;;;;10.88;3.70;;;11.00;73.20;;;;;;5036727;28;20110;-51
2022/03/19 12:25:03;;;;;;;15.93;6.10;;;11.00;72.60;;;;;;5030418;28;20029;-55
2022/03/19 12:27:29;;;;;;;13.32;7.22;;;11.00;72.20;;;;;;5037011;28;20130;-55
2022/03/19 12:29:57;;;;;;;;;;;10.90;73.20;;;;;;5031389;28;20351;-52
2022/03/19 12:32:22;;;;;;;32.17;17.08;;;10.80;71.50;;;;;;5029072;28;20006;-53
2022/03/19 12:34:57;;;;;;;;;;;10.70;72.40;;;;;;5033750;28;20025;-54
2022/03/19 12:37:24;;;;;;;6.25;1.73;;;10.50;73.30;;;;;;5035943;28;20492;-53
2022/03/19 12:39:58;;;;;;;5.45;1.08;;;10.40;74.40;;;;;;5032911;28;20021;-55
2022/03/19 12:42:31;;;;;;;5.95;1.98;;;10.40;76.60;;;;;;5031751;28;20029;-53
2022/03/19 12:44:59;;;;;;;8.35;4.55;;;10.40;77.30;;;;;;5032396;28;20429;-53
2022/03/19 12:47:25;;;;;;;18.30;7.43;;;10.40;78.10;;;;;;5031442;28;20021;-55
2022/03/19 12:49:52;;;;;;;;;;;10.50;77.60;;;;;;5037608;28;20087;-55
2022/03/19 12:52:17;;;;;;;27.25;11.43;;;10.60;76.90;;;;;;5028547;28;20309;-53
2022/03/19 12:54:44;;;;;;;;;;;10.60;75.40;;;;;;5036993;28;20043;-55
2022/03/19 12:57:12;;;;;;;19.05;9.45;;;10.60;76.00;;;;;;5037035;28;19913;-55
2022/03/19 12:59:46;;;;;;;25.42;11.95;;;10.60;74.70;;;;;;5039705;28;20018;-55
2022/03/19 13:02:12;;;;;;;36.17;16.80;;;10.60;70.30;;;;;;5034379;28;20029;-54
2022/03/19 13:04:42;;;;;;;;;;;10.60;70.80;;;;;;5037489;28;20021;-52
2022/03/19 13:07:07;;;;;;;13.32;5.53;;;10.50;72.00;;;;;;5034197;28;19912;-54
2022/03/19 13:09:34;;;;;;;;;;;10.50;72.00;;;;;;5032099;28;20059;-51
2022/03/19 13:12:05;;;;;;;59.75;30.48;;;10.50;71.00;;;;;;5037945;28;19968;-52
2022/03/19 13:14:35;;;;;;;43.60;21.35;;;10.50;70.40;;;;;;5028830;28;20033;-55
2022/03/19 13:17:02;;;;;;;9.68;6.18;;;10.60;69.90;;;;;;5029249;28;20044;-54